sensor_id;sensor_type;location;lat;lon;timestamp;P1;durP1;ratioP1;P2;durP2;ratioP2
31114;SDS011;17764;47.152;9.828;2022-08-04T00:00:10;2.88;;;2.03;;
31114;SDS011;17764;47.152;9.828;2022-08-04T00:10:47;3.58;;;2.13;;
31114;SDS011;17764;47.152;9.828;2022-08-04T00:13:15;2.05;;;1.90;;
31114;SDS011;17764;47.152;9.828;2022-08-04T00:15:46;1.90;;;1.80;;
31114;SDS011;17764;47.152;9.828;2022-08-04T00:18:16;2.08;;;1.90;;
31114;SDS011;17764;47.152;9.828;2022-08-04T00:20:43;2.00;;;1.90;;
31114;SDS011;17764;47.152;9.828;2022-08-04T00:23:09;2.10;;;1.90;;
31114;SDS011;17764;47.152;9.828;2022-08-04T00:25:39;2.50;;;2.30;;
31114;SDS011;17764;47.152;9.828;2022-08-04T00:28:05;2.28;;;2.08;;
31114;SDS011;17764;47.152;9.828;2022-08-04T00:30:32;2.25;;;2.05;;
31114;SDS011;17764;47.152;9.828;2022-08-04T00:32:58;2.83;;;2.20;;
31114;SDS011;17764;47.152;9.828;2022-08-04T00:35:25;3.00;;;2.00;;
31114;SDS011;17764;47.152;9.828;2022-08-04T00:37:53;2.72;;;2.10;;
31114;SDS011;17764;47.152;9.828;2022-08-04T00:43:02;2.75;;;2.00;;
31114;SDS011;17764;47.152;9.828;2022-08-04T00:48:43;2.25;;;2.05;;
31114;SDS011;17764;47.152;9.828;2022-08-04T00:54:29;2.05;;;1.95;;
31114;SDS011;17764;47.152;9.828;2022-08-04T00:59:58;2.30;;;2.10;;
31114;SDS011;17764;47.152;9.828;2022-08-04T01:12:59;2.20;;;1.95;;
31114;SDS011;17764;47.152;9.828;2022-08-04T01:29:33;2.95;;;2.10;;
31114;SDS011;17764;47.152;9.828;2022-08-04T01:32:04;2.60;;;2.20;;
31114;SDS011;17764;47.152;9.828;2022-08-04T01:34:42;1.95;;;1.83;;
31114;SDS011;17764;47.152;9.828;2022-08-04T01:39:49;2.20;;;1.90;;
31114;SDS011;17764;47.152;9.828;2022-08-04T01:42:18;2.60;;;2.40;;
31114;SDS011;17764;47.152;9.828;2022-08-04T01:44:46;3.30;;;2.10;;
31114;SDS011;17764;47.152;9.828;2022-08-04T01:47:12;2.15;;;1.95;;
31114;SDS011;17764;47.152;9.828;2022-08-04T01:49:39;3.22;;;1.85;;
31114;SDS011;17764;47.152;9.828;2022-08-04T01:52:07;2.97;;;2.17;;
31114;SDS011;17764;47.152;9.828;2022-08-04T01:54:36;2.30;;;2.10;;
31114;SDS011;17764;47.152;9.828;2022-08-04T01:57:04;2.40;;;2.20;;
31114;SDS011;17764;47.152;9.828;2022-08-04T01:59:30;2.65;;;2.45;;
31114;SDS011;17764;47.152;9.828;2022-08-04T02:01:56;2.40;;;2.20;;
31114;SDS011;17764;47.152;9.828;2022-08-04T02:04:22;3.25;;;2.30;;
31114;SDS011;17764;47.152;9.828;2022-08-04T02:06:48;2.60;;;2.40;;
31114;SDS011;17764;47.152;9.828;2022-08-04T02:09:21;4.45;;;2.38;;
31114;SDS011;17764;47.152;9.828;2022-08-04T02:12:02;4.85;;;2.40;;
31114;SDS011;17764;47.152;9.828;2022-08-04T02:14:31;3.38;;;2.47;;
31114;SDS011;17764;47.152;9.828;2022-08-04T02:17:10;3.25;;;2.30;;
31114;SDS011;17764;47.152;9.828;2022-08-04T02:20:00;2.72;;;2.50;;
31114;SDS011;17764;47.152;9.828;2022-08-04T02:22:24;4.10;;;2.60;;
31114;SDS011;17764;47.152;9.828;2022-08-04T02:24:55;2.75;;;2.55;;
31114;SDS011;17764;47.152;9.828;2022-08-04T02:27:28;2.90;;;2.70;;
31114;SDS011;17764;47.152;9.828;2022-08-04T02:30:01;3.60;;;2.35;;
31114;SDS011;17764;47.152;9.828;2022-08-04T02:32:29;2.80;;;2.30;;
31114;SDS011;17764;47.152;9.828;2022-08-04T02:35:04;3.13;;;2.55;;
31114;SDS011;17764;47.152;9.828;2022-08-04T02:37:32;3.35;;;2.42;;
31114;SDS011;17764;47.152;9.828;2022-08-04T02:40:00;3.60;;;2.60;;
31114;SDS011;17764;47.152;9.828;2022-08-04T02:42:29;3.55;;;2.90;;
31114;SDS011;17764;47.152;9.828;2022-08-04T02:44:56;4.50;;;2.60;;
31114;SDS011;17764;47.152;9.828;2022-08-04T02:47:24;3.95;;;2.70;;
31114;SDS011;17764;47.152;9.828;2022-08-04T02:49:51;2.70;;;2.50;;
31114;SDS011;17764;47.152;9.828;2022-08-04T02:52:18;2.88;;;2.53;;
31114;SDS011;17764;47.152;9.828;2022-08-04T02:54:46;3.47;;;3.03;;
31114;SDS011;17764;47.152;9.828;2022-08-04T02:57:13;2.63;;;2.42;;
31114;SDS011;17764;47.152;9.828;2022-08-04T03:02:14;2.95;;;2.65;;
31114;SDS011;17764;47.152;9.828;2022-08-04T03:04:54;3.20;;;2.65;;
31114;SDS011;17764;47.152;9.828;2022-08-04T03:23:41;2.50;;;2.30;;
31114;SDS011;17764;47.152;9.828;2022-08-04T03:31:41;2.80;;;2.58;;
31114;SDS011;17764;47.152;9.828;2022-08-04T03:47:52;3.03;;;2.40;;
31114;SDS011;17764;47.152;9.828;2022-08-04T03:53:19;3.63;;;2.35;;
31114;SDS011;17764;47.152;9.828;2022-08-04T03:56:38;3.25;;;2.95;;
31114;SDS011;17764;47.152;9.828;2022-08-04T04:04:27;2.72;;;2.30;;
31114;SDS011;17764;47.152;9.828;2022-08-04T04:17:06;2.60;;;2.30;;
31114;SDS011;17764;47.152;9.828;2022-08-04T04:19:42;2.80;;;2.47;;
31114;SDS011;17764;47.152;9.828;2022-08-04T04:28:10;2.65;;;2.17;;
31114;SDS011;17764;47.152;9.828;2022-08-04T04:30:48;2.92;;;2.55;;
31114;SDS011;17764;47.152;9.828;2022-08-04T04:33:25;3.22;;;2.60;;
31114;SDS011;17764;47.152;9.828;2022-08-04T04:36:15;3.10;;;2.80;;
31114;SDS011;17764;47.152;9.828;2022-08-04T04:38:59;2.83;;;2.45;;
31114;SDS011;17764;47.152;9.828;2022-08-04T04:47:01;2.85;;;2.55;;
31114;SDS011;17764;47.152;9.828;2022-08-04T04:52:33;2.83;;;2.20;;
31114;SDS011;17764;47.152;9.828;2022-08-04T04:57:51;3.03;;;2.63;;
31114;SDS011;17764;47.152;9.828;2022-08-04T05:00:21;2.60;;;2.40;;
31114;SDS011;17764;47.152;9.828;2022-08-04T05:15:33;3.75;;;2.42;;
31114;SDS011;17764;47.152;9.828;2022-08-04T05:18:01;2.65;;;2.45;;
31114;SDS011;17764;47.152;9.828;2022-08-04T05:20:33;2.50;;;2.30;;
31114;SDS011;17764;47.152;9.828;2022-08-04T05:23:01;2.50;;;2.30;;
31114;SDS011;17764;47.152;9.828;2022-08-04T05:25:34;3.38;;;2.95;;
31114;SDS011;17764;47.152;9.828;2022-08-04T05:31:09;3.03;;;2.60;;
31114;SDS011;17764;47.152;9.828;2022-08-04T05:33:40;2.45;;;2.25;;
31114;SDS011;17764;47.152;9.828;2022-08-04T05:36:19;2.10;;;2.00;;
31114;SDS011;17764;47.152;9.828;2022-08-04T05:38:49;3.10;;;2.10;;
31114;SDS011;17764;47.152;9.828;2022-08-04T05:41:18;2.40;;;2.20;;
31114;SDS011;17764;47.152;9.828;2022-08-04T05:43:45;2.97;;;2.30;;
31114;SDS011;17764;47.152;9.828;2022-08-04T05:46:12;2.95;;;2.00;;
31114;SDS011;17764;47.152;9.828;2022-08-04T05:48:40;3.20;;;2.92;;
31114;SDS011;17764;47.152;9.828;2022-08-04T05:51:08;2.60;;;2.40;;
31114;SDS011;17764;47.152;9.828;2022-08-04T05:53:34;4.07;;;2.50;;
31114;SDS011;17764;47.152;9.828;2022-08-04T05:56:01;2.92;;;2.17;;
31114;SDS011;17764;47.152;9.828;2022-08-04T05:58:28;3.50;;;2.70;;
31114;SDS011;17764;47.152;9.828;2022-08-04T06:00:55;2.92;;;2.63;;
31114;SDS011;17764;47.152;9.828;2022-08-04T06:03:21;2.92;;;2.60;;
31114;SDS011;17764;47.152;9.828;2022-08-04T06:05:48;3.28;;;2.33;;
31114;SDS011;17764;47.152;9.828;2022-08-04T06:08:15;3.95;;;2.33;;
31114;SDS011;17764;47.152;9.828;2022-08-04T06:10:41;3.70;;;2.50;;
31114;SDS011;17764;47.152;9.828;2022-08-04T06:13:10;3.03;;;2.40;;
31114;SDS011;17764;47.152;9.828;2022-08-04T06:15:39;2.75;;;2.35;;
31114;SDS011;17764;47.152;9.828;2022-08-04T06:18:06;4.15;;;2.53;;
31114;SDS011;17764;47.152;9.828;2022-08-04T06:20:34;2.97;;;2.25;;
31114;SDS011;17764;47.152;9.828;2022-08-04T06:23:12;3.85;;;2.42;;
31114;SDS011;17764;47.152;9.828;2022-08-04T06:25:42;2.20;;;2.00;;
31114;SDS011;17764;47.152;9.828;2022-08-04T06:28:12;2.45;;;2.25;;
31114;SDS011;17764;47.152;9.828;2022-08-04T06:30:39;2.70;;;2.50;;
31114;SDS011;17764;47.152;9.828;2022-08-04T06:33:09;2.53;;;2.30;;
31114;SDS011;17764;47.152;9.828;2022-08-04T06:35:51;2.55;;;2.33;;
31114;SDS011;17764;47.152;9.828;2022-08-04T06:38:22;2.30;;;1.90;;
31114;SDS011;17764;47.152;9.828;2022-08-04T06:40:49;2.30;;;2.10;;
31114;SDS011;17764;47.152;9.828;2022-08-04T06:43:15;2.83;;;2.30;;
31114;SDS011;17764;47.152;9.828;2022-08-04T06:45:42;2.90;;;2.25;;
31114;SDS011;17764;47.152;9.828;2022-08-04T06:48:10;2.85;;;2.28;;
31114;SDS011;17764;47.152;9.828;2022-08-04T06:50:37;2.33;;;2.13;;
31114;SDS011;17764;47.152;9.828;2022-08-04T06:53:03;2.40;;;2.20;;
31114;SDS011;17764;47.152;9.828;2022-08-04T06:55:30;2.55;;;2.05;;
31114;SDS011;17764;47.152;9.828;2022-08-04T06:57:57;2.25;;;2.05;;
31114;SDS011;17764;47.152;9.828;2022-08-04T07:00:25;2.38;;;2.15;;
31114;SDS011;17764;47.152;9.828;2022-08-04T07:02:52;2.40;;;2.20;;
31114;SDS011;17764;47.152;9.828;2022-08-04T07:05:18;2.47;;;2.10;;
31114;SDS011;17764;47.152;9.828;2022-08-04T07:07:45;2.53;;;2.00;;
31114;SDS011;17764;47.152;9.828;2022-08-04T07:10:11;3.17;;;1.92;;
31114;SDS011;17764;47.152;9.828;2022-08-04T07:12:37;2.58;;;1.90;;
31114;SDS011;17764;47.152;9.828;2022-08-04T07:15:04;2.22;;;2.03;;
31114;SDS011;17764;47.152;9.828;2022-08-04T07:17:34;2.28;;;2.05;;
31114;SDS011;17764;47.152;9.828;2022-08-04T07:20:01;2.63;;;2.33;;
31114;SDS011;17764;47.152;9.828;2022-08-04T07:22:30;2.78;;;2.00;;
31114;SDS011;17764;47.152;9.828;2022-08-04T07:24:57;3.40;;;2.10;;
31114;SDS011;17764;47.152;9.828;2022-08-04T07:27:23;2.20;;;2.00;;
31114;SDS011;17764;47.152;9.828;2022-08-04T07:29:50;2.85;;;1.95;;
31114;SDS011;17764;47.152;9.828;2022-08-04T07:32:18;2.28;;;2.08;;
31114;SDS011;17764;47.152;9.828;2022-08-04T07:34:45;2.22;;;2.03;;
31114;SDS011;17764;47.152;9.828;2022-08-04T07:37:12;2.88;;;2.13;;
31114;SDS011;17764;47.152;9.828;2022-08-04T07:39:38;2.47;;;2.10;;
31114;SDS011;17764;47.152;9.828;2022-08-04T07:42:04;2.50;;;2.10;;
31114;SDS011;17764;47.152;9.828;2022-08-04T07:44:31;2.20;;;2.00;;
31114;SDS011;17764;47.152;9.828;2022-08-04T07:46:57;2.40;;;2.20;;
31114;SDS011;17764;47.152;9.828;2022-08-04T07:49:24;3.58;;;2.15;;
31114;SDS011;17764;47.152;9.828;2022-08-04T07:51:51;2.75;;;2.20;;
31114;SDS011;17764;47.152;9.828;2022-08-04T07:54:17;3.53;;;2.40;;
31114;SDS011;17764;47.152;9.828;2022-08-04T07:56:44;2.72;;;2.25;;
31114;SDS011;17764;47.152;9.828;2022-08-04T07:59:13;2.63;;;2.42;;
31114;SDS011;17764;47.152;9.828;2022-08-04T08:01:39;2.47;;;2.28;;
31114;SDS011;17764;47.152;9.828;2022-08-04T08:04:05;2.60;;;2.40;;
31114;SDS011;17764;47.152;9.828;2022-08-04T08:06:33;5.43;;;2.78;;
31114;SDS011;17764;47.152;9.828;2022-08-04T08:09:05;2.67;;;2.47;;
31114;SDS011;17764;47.152;9.828;2022-08-04T08:11:32;3.33;;;2.85;;
31114;SDS011;17764;47.152;9.828;2022-08-04T08:13:58;3.63;;;2.58;;
31114;SDS011;17764;47.152;9.828;2022-08-04T08:16:25;2.70;;;2.50;;
31114;SDS011;17764;47.152;9.828;2022-08-04T08:18:52;4.38;;;2.90;;
31114;SDS011;17764;47.152;9.828;2022-08-04T08:21:20;3.03;;;2.28;;
31114;SDS011;17764;47.152;9.828;2022-08-04T08:23:46;2.83;;;2.45;;
31114;SDS011;17764;47.152;9.828;2022-08-04T08:26:12;3.70;;;2.70;;
31114;SDS011;17764;47.152;9.828;2022-08-04T08:28:38;2.38;;;2.17;;
31114;SDS011;17764;47.152;9.828;2022-08-04T08:31:04;3.03;;;2.60;;
31114;SDS011;17764;47.152;9.828;2022-08-04T08:33:30;2.67;;;2.47;;
31114;SDS011;17764;47.152;9.828;2022-08-04T08:36:00;3.50;;;2.63;;
31114;SDS011;17764;47.152;9.828;2022-08-04T08:38:39;4.97;;;3.00;;
31114;SDS011;17764;47.152;9.828;2022-08-04T08:46:34;3.85;;;2.88;;
31114;SDS011;17764;47.152;9.828;2022-08-04T08:51:51;2.88;;;2.67;;
31114;SDS011;17764;47.152;9.828;2022-08-04T08:54:34;3.10;;;2.80;;
31114;SDS011;17764;47.152;9.828;2022-08-04T08:57:19;3.10;;;2.80;;
31114;SDS011;17764;47.152;9.828;2022-08-04T09:02:26;4.82;;;3.20;;
31114;SDS011;17764;47.152;9.828;2022-08-04T09:08:06;5.28;;;3.03;;
31114;SDS011;17764;47.152;9.828;2022-08-04T09:13:02;3.38;;;2.65;;
31114;SDS011;17764;47.152;9.828;2022-08-04T09:18:27;8.32;;;2.80;;
31114;SDS011;17764;47.152;9.828;2022-08-04T09:21:01;2.92;;;2.58;;
31114;SDS011;17764;47.152;9.828;2022-08-04T09:25:59;5.22;;;3.08;;
31114;SDS011;17764;47.152;9.828;2022-08-04T09:28:37;2.88;;;2.55;;
31114;SDS011;17764;47.152;9.828;2022-08-04T09:31:18;4.50;;;2.58;;
31114;SDS011;17764;47.152;9.828;2022-08-04T09:33:49;4.78;;;2.65;;
31114;SDS011;17764;47.152;9.828;2022-08-04T09:38:59;3.20;;;2.90;;
31114;SDS011;17764;47.152;9.828;2022-08-04T09:44:17;3.50;;;2.88;;
31114;SDS011;17764;47.152;9.828;2022-08-04T09:46:51;4.13;;;2.70;;
31114;SDS011;17764;47.152;9.828;2022-08-04T09:49:36;3.22;;;2.92;;
31114;SDS011;17764;47.152;9.828;2022-08-04T09:52:15;5.30;;;2.90;;
31114;SDS011;17764;47.152;9.828;2022-08-04T09:54:50;4.32;;;2.58;;
31114;SDS011;17764;47.152;9.828;2022-08-04T09:59:57;3.38;;;3.08;;
31114;SDS011;17764;47.152;9.828;2022-08-04T10:02:25;3.08;;;2.60;;
31114;SDS011;17764;47.152;9.828;2022-08-04T10:04:58;5.68;;;2.88;;
31114;SDS011;17764;47.152;9.828;2022-08-04T10:07:44;3.17;;;2.45;;
31114;SDS011;17764;47.152;9.828;2022-08-04T10:13:02;6.00;;;2.90;;
31114;SDS011;17764;47.152;9.828;2022-08-04T10:15:35;4.30;;;2.75;;
31114;SDS011;17764;47.152;9.828;2022-08-04T10:23:45;5.15;;;2.58;;
31114;SDS011;17764;47.152;9.828;2022-08-04T10:26:30;4.95;;;3.17;;
31114;SDS011;17764;47.152;9.828;2022-08-04T10:29:03;3.78;;;2.67;;
31114;SDS011;17764;47.152;9.828;2022-08-04T10:31:34;3.88;;;2.63;;
31114;SDS011;17764;47.152;9.828;2022-08-04T10:34:18;3.65;;;2.92;;
31114;SDS011;17764;47.152;9.828;2022-08-04T10:36:48;4.07;;;2.90;;
31114;SDS011;17764;47.152;9.828;2022-08-04T10:39:17;3.83;;;3.00;;
31114;SDS011;17764;47.152;9.828;2022-08-04T10:47:17;7.45;;;2.78;;
31114;SDS011;17764;47.152;9.828;2022-08-04T10:49:47;3.95;;;2.40;;
31114;SDS011;17764;47.152;9.828;2022-08-04T10:55:21;5.60;;;2.58;;
31114;SDS011;17764;47.152;9.828;2022-08-04T10:58:06;3.60;;;2.60;;
31114;SDS011;17764;47.152;9.828;2022-08-04T11:00:35;4.82;;;2.60;;
31114;SDS011;17764;47.152;9.828;2022-08-04T11:03:20;2.90;;;2.60;;
31114;SDS011;17764;47.152;9.828;2022-08-04T11:05:57;3.60;;;2.15;;
31114;SDS011;17764;47.152;9.828;2022-08-04T11:08:35;3.17;;;2.42;;
31114;SDS011;17764;47.152;9.828;2022-08-04T11:11:20;2.70;;;1.90;;
31114;SDS011;17764;47.152;9.828;2022-08-04T11:16:20;3.35;;;2.20;;
31114;SDS011;17764;47.152;9.828;2022-08-04T11:21:14;2.53;;;2.30;;
31114;SDS011;17764;47.152;9.828;2022-08-04T11:24:01;3.47;;;2.22;;
31114;SDS011;17764;47.152;9.828;2022-08-04T11:26:45;2.50;;;1.70;;
31114;SDS011;17764;47.152;9.828;2022-08-04T11:31:51;2.97;;;2.05;;
31114;SDS011;17764;47.152;9.828;2022-08-04T11:34:25;4.53;;;1.85;;
31114;SDS011;17764;47.152;9.828;2022-08-04T11:39:23;1.85;;;1.75;;
31114;SDS011;17764;47.152;9.828;2022-08-04T11:42:04;3.25;;;1.70;;
31114;SDS011;17764;47.152;9.828;2022-08-04T11:45:04;2.08;;;1.48;;
31114;SDS011;17764;47.152;9.828;2022-08-04T11:47:33;4.18;;;1.45;;
31114;SDS011;17764;47.152;9.828;2022-08-04T11:52:33;1.58;;;1.40;;
31114;SDS011;17764;47.152;9.828;2022-08-04T11:55:03;1.90;;;1.30;;
31114;SDS011;17764;47.152;9.828;2022-08-04T11:57:30;2.63;;;1.45;;
31114;SDS011;17764;47.152;9.828;2022-08-04T11:59:56;3.53;;;1.50;;
31114;SDS011;17764;47.152;9.828;2022-08-04T12:05:30;3.88;;;1.20;;
31114;SDS011;17764;47.152;9.828;2022-08-04T12:11:11;2.15;;;1.60;;
31114;SDS011;17764;47.152;9.828;2022-08-04T12:19:03;1.58;;;1.48;;
31114;SDS011;17764;47.152;9.828;2022-08-04T12:21:53;2.03;;;1.30;;
31114;SDS011;17764;47.152;9.828;2022-08-04T12:27:40;2.67;;;1.30;;
31114;SDS011;17764;47.152;9.828;2022-08-04T12:30:10;2.10;;;1.40;;
31114;SDS011;17764;47.152;9.828;2022-08-04T12:33:11;1.70;;;1.40;;
31114;SDS011;17764;47.152;9.828;2022-08-04T12:40:44;2.20;;;1.15;;
31114;SDS011;17764;47.152;9.828;2022-08-04T12:43:25;2.38;;;1.60;;
31114;SDS011;17764;47.152;9.828;2022-08-04T12:46:09;1.48;;;1.30;;
31114;SDS011;17764;47.152;9.828;2022-08-04T12:48:36;3.20;;;1.25;;
31114;SDS011;17764;47.152;9.828;2022-08-04T12:51:03;2.33;;;1.33;;
31114;SDS011;17764;47.152;9.828;2022-08-04T12:53:40;3.33;;;1.23;;
31114;SDS011;17764;47.152;9.828;2022-08-04T12:56:08;2.33;;;1.58;;
31114;SDS011;17764;47.152;9.828;2022-08-04T12:58:45;2.20;;;1.42;;
31114;SDS011;17764;47.152;9.828;2022-08-04T13:01:18;4.53;;;1.75;;
31114;SDS011;17764;47.152;9.828;2022-08-04T13:03:52;1.27;;;1.15;;
31114;SDS011;17764;47.152;9.828;2022-08-04T13:06:29;3.15;;;1.40;;
31114;SDS011;17764;47.152;9.828;2022-08-04T13:09:01;4.18;;;1.52;;
31114;SDS011;17764;47.152;9.828;2022-08-04T13:11:27;3.08;;;1.50;;
31114;SDS011;17764;47.152;9.828;2022-08-04T13:13:58;1.95;;;1.42;;
31114;SDS011;17764;47.152;9.828;2022-08-04T13:16:28;2.72;;;1.60;;
31114;SDS011;17764;47.152;9.828;2022-08-04T13:18:54;5.15;;;1.73;;
31114;SDS011;17764;47.152;9.828;2022-08-04T13:21:21;2.55;;;1.40;;
31114;SDS011;17764;47.152;9.828;2022-08-04T13:23:49;3.42;;;1.40;;
31114;SDS011;17764;47.152;9.828;2022-08-04T13:26:37;1.73;;;1.30;;
31114;SDS011;17764;47.152;9.828;2022-08-04T13:29:18;2.17;;;1.40;;
31114;SDS011;17764;47.152;9.828;2022-08-04T13:31:46;3.53;;;1.50;;
31114;SDS011;17764;47.152;9.828;2022-08-04T13:34:12;2.97;;;1.55;;
31114;SDS011;17764;47.152;9.828;2022-08-04T13:36:40;2.13;;;1.50;;
31114;SDS011;17764;47.152;9.828;2022-08-04T13:39:08;1.92;;;1.60;;
31114;SDS011;17764;47.152;9.828;2022-08-04T13:41:38;2.75;;;1.48;;
31114;SDS011;17764;47.152;9.828;2022-08-04T13:44:08;3.78;;;1.50;;
31114;SDS011;17764;47.152;9.828;2022-08-04T13:46:37;3.50;;;1.48;;
31114;SDS011;17764;47.152;9.828;2022-08-04T13:49:09;3.70;;;1.20;;
31114;SDS011;17764;47.152;9.828;2022-08-04T13:51:36;1.60;;;1.33;;
31114;SDS011;17764;47.152;9.828;2022-08-04T13:54:04;4.20;;;1.60;;
31114;SDS011;17764;47.152;9.828;2022-08-04T13:56:35;1.25;;;1.10;;
31114;SDS011;17764;47.152;9.828;2022-08-04T13:59:04;1.70;;;1.23;;
31114;SDS011;17764;47.152;9.828;2022-08-04T14:01:35;2.10;;;1.40;;
31114;SDS011;17764;47.152;9.828;2022-08-04T14:04:08;1.67;;;1.38;;
31114;SDS011;17764;47.152;9.828;2022-08-04T14:06:48;3.15;;;1.40;;
31114;SDS011;17764;47.152;9.828;2022-08-04T14:09:18;1.77;;;1.20;;
31114;SDS011;17764;47.152;9.828;2022-08-04T14:11:49;1.85;;;1.40;;
31114;SDS011;17764;47.152;9.828;2022-08-04T14:14:18;4.55;;;1.60;;
31114;SDS011;17764;47.152;9.828;2022-08-04T14:19:47;2.15;;;1.58;;
31114;SDS011;17764;47.152;9.828;2022-08-04T14:24:58;7.93;;;1.60;;
31114;SDS011;17764;47.152;9.828;2022-08-04T14:27:29;2.60;;;1.30;;
31114;SDS011;17764;47.152;9.828;2022-08-04T14:29:56;5.43;;;1.45;;
31114;SDS011;17764;47.152;9.828;2022-08-04T14:32:22;1.48;;;1.38;;
31114;SDS011;17764;47.152;9.828;2022-08-04T14:34:48;1.27;;;1.17;;
31114;SDS011;17764;47.152;9.828;2022-08-04T14:37:15;2.75;;;1.60;;
31114;SDS011;17764;47.152;9.828;2022-08-04T14:39:47;3.78;;;2.00;;
31114;SDS011;17764;47.152;9.828;2022-08-04T14:42:14;1.83;;;1.33;;
31114;SDS011;17764;47.152;9.828;2022-08-04T14:44:56;2.65;;;1.38;;
31114;SDS011;17764;47.152;9.828;2022-08-04T14:47:38;1.35;;;1.25;;
31114;SDS011;17764;47.152;9.828;2022-08-04T14:50:05;4.43;;;1.73;;
31114;SDS011;17764;47.152;9.828;2022-08-04T14:52:31;3.25;;;1.70;;
31114;SDS011;17764;47.152;9.828;2022-08-04T14:54:57;2.95;;;1.58;;
31114;SDS011;17764;47.152;9.828;2022-08-04T14:57:23;1.70;;;1.50;;
31114;SDS011;17764;47.152;9.828;2022-08-04T14:59:50;3.55;;;1.58;;
31114;SDS011;17764;47.152;9.828;2022-08-04T15:02:16;4.50;;;1.50;;
31114;SDS011;17764;47.152;9.828;2022-08-04T15:04:42;1.83;;;1.52;;
31114;SDS011;17764;47.152;9.828;2022-08-04T15:07:10;3.33;;;1.58;;
31114;SDS011;17764;47.152;9.828;2022-08-04T15:09:36;2.78;;;1.70;;
31114;SDS011;17764;47.152;9.828;2022-08-04T15:12:02;4.00;;;1.42;;
31114;SDS011;17764;47.152;9.828;2022-08-04T15:14:29;2.75;;;1.67;;
31114;SDS011;17764;47.152;9.828;2022-08-04T15:16:55;3.58;;;1.55;;
31114;SDS011;17764;47.152;9.828;2022-08-04T15:19:22;2.22;;;1.60;;
31114;SDS011;17764;47.152;9.828;2022-08-04T15:21:49;1.77;;;1.40;;
31114;SDS011;17764;47.152;9.828;2022-08-04T15:24:15;2.40;;;1.30;;
31114;SDS011;17764;47.152;9.828;2022-08-04T15:26:46;3.53;;;1.50;;
31114;SDS011;17764;47.152;9.828;2022-08-04T15:31:54;1.40;;;1.30;;
31114;SDS011;17764;47.152;9.828;2022-08-04T15:34:20;2.05;;;1.33;;
31114;SDS011;17764;47.152;9.828;2022-08-04T15:36:51;2.03;;;1.63;;
31114;SDS011;17764;47.152;9.828;2022-08-04T15:41:52;1.70;;;1.40;;
31114;SDS011;17764;47.152;9.828;2022-08-04T15:47:40;4.53;;;1.60;;
31114;SDS011;17764;47.152;9.828;2022-08-04T15:50:10;2.75;;;1.50;;
31114;SDS011;17764;47.152;9.828;2022-08-04T15:55:36;3.97;;;1.48;;
31114;SDS011;17764;47.152;9.828;2022-08-04T15:58:07;2.60;;;1.42;;
31114;SDS011;17764;47.152;9.828;2022-08-04T16:05:55;1.77;;;1.10;;
31114;SDS011;17764;47.152;9.828;2022-08-04T16:08:21;3.97;;;1.60;;
31114;SDS011;17764;47.152;9.828;2022-08-04T16:10:48;1.40;;;1.30;;
31114;SDS011;17764;47.152;9.828;2022-08-04T16:13:16;1.98;;;1.50;;
31114;SDS011;17764;47.152;9.828;2022-08-04T16:15:50;2.33;;;1.50;;
31114;SDS011;17764;47.152;9.828;2022-08-04T16:20:55;2.15;;;1.48;;
31114;SDS011;17764;47.152;9.828;2022-08-04T16:34:33;1.60;;;1.40;;
31114;SDS011;17764;47.152;9.828;2022-08-04T16:37:00;1.98;;;1.40;;
31114;SDS011;17764;47.152;9.828;2022-08-04T16:39:27;2.05;;;1.60;;
31114;SDS011;17764;47.152;9.828;2022-08-04T16:41:54;3.30;;;1.35;;
31114;SDS011;17764;47.152;9.828;2022-08-04T16:44:30;2.50;;;1.35;;
31114;SDS011;17764;47.152;9.828;2022-08-04T16:47:00;1.95;;;1.48;;
31114;SDS011;17764;47.152;9.828;2022-08-04T16:49:27;2.28;;;1.58;;
31114;SDS011;17764;47.152;9.828;2022-08-04T16:51:53;2.78;;;1.30;;
31114;SDS011;17764;47.152;9.828;2022-08-04T16:54:22;1.77;;;1.30;;
31114;SDS011;17764;47.152;9.828;2022-08-04T16:56:48;2.10;;;1.30;;
31114;SDS011;17764;47.152;9.828;2022-08-04T16:59:14;1.40;;;1.30;;
31114;SDS011;17764;47.152;9.828;2022-08-04T17:01:44;1.65;;;1.55;;
31114;SDS011;17764;47.152;9.828;2022-08-04T17:04:11;1.20;;;1.10;;
31114;SDS011;17764;47.152;9.828;2022-08-04T17:06:38;1.52;;;1.42;;
31114;SDS011;17764;47.152;9.828;2022-08-04T17:09:05;1.50;;;1.40;;
31114;SDS011;17764;47.152;9.828;2022-08-04T17:11:31;1.40;;;1.30;;
31114;SDS011;17764;47.152;9.828;2022-08-04T17:13:57;2.03;;;1.40;;
31114;SDS011;17764;47.152;9.828;2022-08-04T17:16:23;2.17;;;1.50;;
31114;SDS011;17764;47.152;9.828;2022-08-04T17:18:50;1.77;;;1.40;;
31114;SDS011;17764;47.152;9.828;2022-08-04T17:21:19;2.97;;;1.25;;
31114;SDS011;17764;47.152;9.828;2022-08-04T17:24:04;1.30;;;1.20;;
31114;SDS011;17764;47.152;9.828;2022-08-04T17:26:31;1.75;;;1.45;;
31114;SDS011;17764;47.152;9.828;2022-08-04T17:28:59;1.98;;;1.40;;
31114;SDS011;17764;47.152;9.828;2022-08-04T17:31:26;1.52;;;1.30;;
31114;SDS011;17764;47.152;9.828;2022-08-04T17:33:53;2.25;;;1.17;;
31114;SDS011;17764;47.152;9.828;2022-08-04T17:36:22;2.05;;;1.45;;
31114;SDS011;17764;47.152;9.828;2022-08-04T17:38:58;2.97;;;1.50;;
31114;SDS011;17764;47.152;9.828;2022-08-04T17:41:26;1.50;;;1.40;;
31114;SDS011;17764;47.152;9.828;2022-08-04T17:43:59;1.70;;;1.40;;
31114;SDS011;17764;47.152;9.828;2022-08-04T17:49:02;2.25;;;1.40;;
31114;SDS011;17764;47.152;9.828;2022-08-04T17:51:32;1.55;;;1.45;;
31114;SDS011;17764;47.152;9.828;2022-08-04T17:53:58;1.65;;;1.55;;
31114;SDS011;17764;47.152;9.828;2022-08-04T18:01:51;3.20;;;1.50;;
31114;SDS011;17764;47.152;9.828;2022-08-04T18:04:27;2.47;;;1.48;;
31114;SDS011;17764;47.152;9.828;2022-08-04T18:06:54;3.45;;;1.27;;
31114;SDS011;17764;47.152;9.828;2022-08-04T18:09:30;1.98;;;1.85;;
31114;SDS011;17764;47.152;9.828;2022-08-04T18:12:00;2.22;;;1.90;;
31114;SDS011;17764;47.152;9.828;2022-08-04T18:14:41;2.75;;;1.98;;
31114;SDS011;17764;47.152;9.828;2022-08-04T18:17:07;3.28;;;1.80;;
31114;SDS011;17764;47.152;9.828;2022-08-04T18:19:34;2.40;;;1.90;;
31114;SDS011;17764;47.152;9.828;2022-08-04T18:22:01;2.65;;;2.00;;
31114;SDS011;17764;47.152;9.828;2022-08-04T18:24:28;2.50;;;1.90;;
31114;SDS011;17764;47.152;9.828;2022-08-04T18:26:55;2.08;;;1.65;;
31114;SDS011;17764;47.152;9.828;2022-08-04T18:29:21;2.00;;;1.80;;
31114;SDS011;17764;47.152;9.828;2022-08-04T18:31:47;2.15;;;1.85;;
31114;SDS011;17764;47.152;9.828;2022-08-04T18:34:12;3.00;;;1.90;;
31114;SDS011;17764;47.152;9.828;2022-08-04T18:36:38;1.67;;;1.58;;
31114;SDS011;17764;47.152;9.828;2022-08-04T18:39:07;2.55;;;1.60;;
31114;SDS011;17764;47.152;9.828;2022-08-04T18:41:32;1.92;;;1.60;;
31114;SDS011;17764;47.152;9.828;2022-08-04T18:43:58;1.92;;;1.70;;
31114;SDS011;17764;47.152;9.828;2022-08-04T18:46:25;2.25;;;2.05;;
31114;SDS011;17764;47.152;9.828;2022-08-04T18:48:50;2.80;;;2.22;;
31114;SDS011;17764;47.152;9.828;2022-08-04T18:51:16;2.65;;;1.95;;
31114;SDS011;17764;47.152;9.828;2022-08-04T18:53:46;2.53;;;2.15;;
31114;SDS011;17764;47.152;9.828;2022-08-04T18:56:12;2.10;;;1.90;;
31114;SDS011;17764;47.152;9.828;2022-08-04T18:58:39;2.28;;;2.08;;
31114;SDS011;17764;47.152;9.828;2022-08-04T19:01:05;2.00;;;1.90;;
31114;SDS011;17764;47.152;9.828;2022-08-04T19:03:32;2.35;;;2.15;;
31114;SDS011;17764;47.152;9.828;2022-08-04T19:05:59;2.05;;;1.95;;
31114;SDS011;17764;47.152;9.828;2022-08-04T19:08:26;3.25;;;1.80;;
31114;SDS011;17764;47.152;9.828;2022-08-04T19:10:52;3.28;;;1.70;;
31114;SDS011;17764;47.152;9.828;2022-08-04T19:13:17;1.92;;;1.73;;
31114;SDS011;17764;47.152;9.828;2022-08-04T19:15:43;1.77;;;1.67;;
31114;SDS011;17764;47.152;9.828;2022-08-04T19:18:09;1.85;;;1.73;;
31114;SDS011;17764;47.152;9.828;2022-08-04T19:20:35;1.83;;;1.73;;
31114;SDS011;17764;47.152;9.828;2022-08-04T19:23:01;1.83;;;1.70;;
31114;SDS011;17764;47.152;9.828;2022-08-04T19:25:27;3.15;;;1.80;;